sensor_id;sensor_type;location;lat;lon;timestamp;pressure;altitude;pressure_sealevel;temperature;humidity
55373;BME280;41249;47.838;16.490;2023-02-23T00:01:53;99103.16;;;1.38;76.74
55373;BME280;41249;47.838;16.490;2023-02-23T00:04:20;99110.13;;;1.35;76.46
55373;BME280;41249;47.838;16.490;2023-02-23T00:06:49;99104.88;;;1.30;76.87
55373;BME280;41249;47.838;16.490;2023-02-23T00:09:19;99100.88;;;1.28;77.17
55373;BME280;41249;47.838;16.490;2023-02-23T00:11:51;99096.53;;;1.27;76.55
55373;BME280;41249;47.838;16.490;2023-02-23T00:14:19;99099.63;;;1.25;77.05
55373;BME280;41249;47.838;16.490;2023-02-23T00:16:45;99103.13;;;1.26;77.20
55373;BME280;41249;47.838;16.490;2023-02-23T00:19:12;99097.66;;;1.26;76.23
55373;BME280;41249;47.838;16.490;2023-02-23T00:21:40;99097.34;;;1.27;76.55
55373;BME280;41249;47.838;16.490;2023-02-23T00:24:09;99104.38;;;1.28;76.84
55373;BME280;41249;47.838;16.490;2023-02-23T00:26:38;99098.00;;;1.24;77.06
55373;BME280;41249;47.838;16.490;2023-02-23T00:29:07;99097.66;;;1.26;76.32
55373;BME280;41249;47.838;16.490;2023-02-23T00:31:34;99094.94;;;1.26;77.00
55373;BME280;41249;47.838;16.490;2023-02-23T00:34:04;99096.75;;;1.22;76.83
55373;BME280;41249;47.838;16.490;2023-02-23T00:36:32;99094.69;;;1.19;76.78
55373;BME280;41249;47.838;16.490;2023-02-23T00:39:05;99098.22;;;1.19;77.36
55373;BME280;41249;47.838;16.490;2023-02-23T00:41:44;99093.91;;;1.18;77.32
55373;BME280;41249;47.838;16.490;2023-02-23T00:44:11;99097.66;;;1.14;77.70
55373;BME280;41249;47.838;16.490;2023-02-23T00:46:41;99096.41;;;1.11;77.78
55373;BME280;41249;47.838;16.490;2023-02-23T00:49:11;99097.56;;;1.10;77.49
55373;BME280;41249;47.838;16.490;2023-02-23T00:51:38;99100.16;;;1.07;77.08
55373;BME280;41249;47.838;16.490;2023-02-23T00:54:06;99096.97;;;1.05;78.50
55373;BME280;41249;47.838;16.490;2023-02-23T00:56:33;99093.09;;;1.06;77.53
55373;BME280;41249;47.838;16.490;2023-02-23T00:59:00;99093.44;;;1.04;78.15
55373;BME280;41249;47.838;16.490;2023-02-23T01:01:27;99089.13;;;1.03;78.14
55373;BME280;41249;47.838;16.490;2023-02-23T01:03:53;99095.72;;;1.02;77.99
55373;BME280;41249;47.838;16.490;2023-02-23T01:06:21;99095.25;;;1.00;77.82
55373;BME280;41249;47.838;16.490;2023-02-23T01:08:49;99096.72;;;0.98;77.95
55373;BME280;41249;47.838;16.490;2023-02-23T01:11:19;99091.13;;;0.94;78.84
55373;BME280;41249;47.838;16.490;2023-02-23T01:13:48;99087.50;;;0.90;78.06
55373;BME280;41249;47.838;16.490;2023-02-23T01:16:17;99089.78;;;0.88;78.79
55373;BME280;41249;47.838;16.490;2023-02-23T01:18:44;99098.66;;;0.85;78.03
55373;BME280;41249;47.838;16.490;2023-02-23T01:21:21;99094.94;;;0.81;78.70
55373;BME280;41249;47.838;16.490;2023-02-23T01:23:49;99079.69;;;0.80;78.12
55373;BME280;41249;47.838;16.490;2023-02-23T01:26:21;99087.44;;;0.78;78.31
55373;BME280;41249;47.838;16.490;2023-02-23T01:28:49;99083.78;;;0.74;79.05
55373;BME280;41249;47.838;16.490;2023-02-23T01:31:17;99082.66;;;0.75;78.79
55373;BME280;41249;47.838;16.490;2023-02-23T01:33:44;99078.75;;;0.76;78.54
55373;BME280;41249;47.838;16.490;2023-02-23T01:36:11;99075.25;;;0.75;78.64
55373;BME280;41249;47.838;16.490;2023-02-23T01:38:39;99086.97;;;0.76;77.98
55373;BME280;41249;47.838;16.490;2023-02-23T01:41:06;99075.56;;;0.74;78.14
55373;BME280;41249;47.838;16.490;2023-02-23T01:43:35;99081.03;;;0.74;78.36
55373;BME280;41249;47.838;16.490;2023-02-23T01:46:19;99079.47;;;0.73;79.35
55373;BME280;41249;47.838;16.490;2023-02-23T01:48:46;99074.31;;;0.71;79.01
55373;BME280;41249;47.838;16.490;2023-02-23T01:51:19;99074.66;;;0.70;79.61
55373;BME280;41249;47.838;16.490;2023-02-23T01:53:57;99074.66;;;0.70;79.12
55373;BME280;41249;47.838;16.490;2023-02-23T01:56:29;99071.47;;;0.68;79.11
55373;BME280;41249;47.838;16.490;2023-02-23T01:58:58;99067.13;;;0.67;79.29
55373;BME280;41249;47.838;16.490;2023-02-23T02:01:27;99065.22;;;0.67;79.31
55373;BME280;41249;47.838;16.490;2023-02-23T02:03:57;99065.06;;;0.64;79.49
55373;BME280;41249;47.838;16.490;2023-02-23T02:06:26;99067.34;;;0.62;79.76
55373;BME280;41249;47.838;16.490;2023-02-23T02:08:57;99066.09;;;0.59;79.41
55373;BME280;41249;47.838;16.490;2023-02-23T02:11:25;99064.16;;;0.60;80.03
55373;BME280;41249;47.838;16.490;2023-02-23T02:14:00;99057.59;;;0.61;79.73
55373;BME280;41249;47.838;16.490;2023-02-23T02:21:54;99055.53;;;0.58;78.96
55373;BME280;41249;47.838;16.490;2023-02-23T02:30:39;99062.06;;;0.45;80.31
55373;BME280;41249;47.838;16.490;2023-02-23T02:42:37;99053.59;;;0.26;80.65
55373;BME280;41249;47.838;16.490;2023-02-23T02:45:23;99062.44;;;0.22;80.15
55373;BME280;41249;47.838;16.490;2023-02-23T02:48:15;99059.72;;;0.22;80.32
55373;BME280;41249;47.838;16.490;2023-02-23T02:53:27;99068.91;;;0.18;80.90
55373;BME280;41249;47.838;16.490;2023-02-23T02:56:00;99069.56;;;0.15;80.64
55373;BME280;41249;47.838;16.490;2023-02-23T02:58:31;99067.50;;;0.12;80.46
55373;BME280;41249;47.838;16.490;2023-02-23T03:01:06;99069.31;;;0.08;81.58
55373;BME280;41249;47.838;16.490;2023-02-23T03:03:51;99068.06;;;0.05;80.83
55373;BME280;41249;47.838;16.490;2023-02-23T03:07:05;99071.31;;;-0.01;81.01
55373;BME280;41249;47.838;16.490;2023-02-23T03:09:56;99072.31;;;-0.06;82.04
55373;BME280;41249;47.838;16.490;2023-02-23T03:21:50;99076.44;;;-0.20;81.28
55373;BME280;41249;47.838;16.490;2023-02-23T03:27:49;99081.28;;;-0.26;82.59
55373;BME280;41249;47.838;16.490;2023-02-23T03:30:46;99071.50;;;-0.27;82.49
55373;BME280;41249;47.838;16.490;2023-02-23T03:33:40;99085.16;;;-0.27;82.38
55373;BME280;41249;47.838;16.490;2023-02-23T03:36:32;99079.22;;;-0.29;81.84
55373;BME280;41249;47.838;16.490;2023-02-23T03:39:26;99078.75;;;-0.31;82.13
55373;BME280;41249;47.838;16.490;2023-02-23T03:42:17;99080.53;;;-0.35;82.50
55373;BME280;41249;47.838;16.490;2023-02-23T03:45:08;99085.53;;;-0.37;82.92
55373;BME280;41249;47.838;16.490;2023-02-23T03:47:56;99083.00;;;-0.42;82.62
55373;BME280;41249;47.838;16.490;2023-02-23T03:50:48;99090.84;;;-0.40;82.74
55373;BME280;41249;47.838;16.490;2023-02-23T03:53:46;99091.19;;;-0.42;83.89
55373;BME280;41249;47.838;16.490;2023-02-23T03:56:36;99081.28;;;-0.47;82.54
55373;BME280;41249;47.838;16.490;2023-02-23T03:59:25;99090.22;;;-0.46;83.44
55373;BME280;41249;47.838;16.490;2023-02-23T04:02:16;99096.03;;;-0.48;83.18
55373;BME280;41249;47.838;16.490;2023-02-23T04:05:07;99092.03;;;-0.50;83.87
55373;BME280;41249;47.838;16.490;2023-02-23T04:07:55;99094.75;;;-0.50;83.18
55373;BME280;41249;47.838;16.490;2023-02-23T04:10:49;99093.16;;;-0.51;83.53
55373;BME280;41249;47.838;16.490;2023-02-23T04:13:37;99095.41;;;-0.53;83.22
55373;BME280;41249;47.838;16.490;2023-02-23T04:16:09;99099.28;;;-0.54;83.63
55373;BME280;41249;47.838;16.490;2023-02-23T04:18:38;99100.41;;;-0.55;83.76
55373;BME280;41249;47.838;16.490;2023-02-23T04:21:05;99099.59;;;-0.56;83.72
55373;BME280;41249;47.838;16.490;2023-02-23T04:23:33;99106.50;;;-0.58;83.37
55373;BME280;41249;47.838;16.490;2023-02-23T04:26:00;99103.31;;;-0.60;84.13
55373;BME280;41249;47.838;16.490;2023-02-23T04:28:28;99106.50;;;-0.58;83.41
55373;BME280;41249;47.838;16.490;2023-02-23T04:30:54;99095.94;;;-0.60;83.59
55373;BME280;41249;47.838;16.490;2023-02-23T04:33:21;99109.88;;;-0.61;83.98
55373;BME280;41249;47.838;16.490;2023-02-23T04:35:52;99095.78;;;-0.63;83.87
55373;BME280;41249;47.838;16.490;2023-02-23T04:38:19;99104.13;;;-0.60;84.29
55373;BME280;41249;47.838;16.490;2023-02-23T04:40:46;99100.91;;;-0.62;83.67
55373;BME280;41249;47.838;16.490;2023-02-23T04:43:13;99103.31;;;-0.60;84.24
55373;BME280;41249;47.838;16.490;2023-02-23T04:45:40;99104.91;;;-0.59;84.82
55373;BME280;41249;47.838;16.490;2023-02-23T04:48:07;99105.69;;;-0.59;85.04
55373;BME280;41249;47.838;16.490;2023-02-23T04:50:34;99104.91;;;-0.59;84.35
55373;BME280;41249;47.838;16.490;2023-02-23T04:53:01;99103.78;;;-0.58;84.32
55373;BME280;41249;47.838;16.490;2023-02-23T04:55:27;99106.66;;;-0.55;84.25
55373;BME280;41249;47.838;16.490;2023-02-23T04:57:59;99109.69;;;-0.56;84.73
55373;BME280;41249;47.838;16.490;2023-02-23T05:00:26;99119.47;;;-0.55;84.62
55373;BME280;41249;47.838;16.490;2023-02-23T05:02:55;99116.75;;;-0.55;84.92
55373;BME280;41249;47.838;16.490;2023-02-23T05:05:22;99123.81;;;-0.54;84.38
55373;BME280;41249;47.838;16.490;2023-02-23T05:07:49;99111.31;;;-0.55;84.80
55373;BME280;41249;47.838;16.490;2023-02-23T05:10:15;99124.59;;;-0.54;85.14
55373;BME280;41249;47.838;16.490;2023-02-23T05:12:42;99116.75;;;-0.55;84.65
55373;BME280;41249;47.838;16.490;2023-02-23T05:15:09;99119.94;;;-0.53;84.81
55373;BME280;41249;47.838;16.490;2023-02-23T05:17:39;99118.38;;;-0.54;84.33
55373;BME280;41249;47.838;16.490;2023-02-23T05:20:12;99117.69;;;-0.51;84.35
55373;BME280;41249;47.838;16.490;2023-02-23T05:22:39;99119.28;;;-0.50;84.36
55373;BME280;41249;47.838;16.490;2023-02-23T05:25:06;99119.81;;;-0.57;84.21
55373;BME280;41249;47.838;16.490;2023-02-23T05:27:34;99120.13;;;-0.58;84.65
55373;BME280;41249;47.838;16.490;2023-02-23T05:30:00;99124.31;;;-0.61;84.24
55373;BME280;41249;47.838;16.490;2023-02-23T05:32:27;99123.50;;;-0.61;84.85
55373;BME280;41249;47.838;16.490;2023-02-23T05:34:55;99119.66;;;-0.60;84.95
55373;BME280;41249;47.838;16.490;2023-02-23T05:37:21;99116.47;;;-0.62;84.88
55373;BME280;41249;47.838;16.490;2023-02-23T05:39:48;99127.38;;;-0.62;84.86
55373;BME280;41249;47.838;16.490;2023-02-23T05:42:15;99128.97;;;-0.61;84.91
55373;BME280;41249;47.838;16.490;2023-02-23T05:44:41;99130.56;;;-0.60;85.28
55373;BME280;41249;47.838;16.490;2023-02-23T05:47:08;99128.50;;;-0.63;85.00
55373;BME280;41249;47.838;16.490;2023-02-23T05:49:34;99140.03;;;-0.66;85.00
55373;BME280;41249;47.838;16.490;2023-02-23T05:52:01;99141.19;;;-0.67;84.50
55373;BME280;41249;47.838;16.490;2023-02-23T05:54:28;99138.81;;;-0.77;85.17
55373;BME280;41249;47.838;16.490;2023-02-23T05:56:54;99145.72;;;-0.80;85.10
55373;BME280;41249;47.838;16.490;2023-02-23T05:59:21;99143.34;;;-0.81;85.17
55373;BME280;41249;47.838;16.490;2023-02-23T06:01:47;99145.38;;;-0.78;85.90
55373;BME280;41249;47.838;16.490;2023-02-23T06:04:14;99141.22;;;-0.76;85.49
55373;BME280;41249;47.838;16.490;2023-02-23T06:06:42;99151.81;;;-0.74;85.35
55373;BME280;41249;47.838;16.490;2023-02-23T06:09:09;99140.41;;;-0.76;85.79
55373;BME280;41249;47.838;16.490;2023-02-23T06:11:35;99154.19;;;-0.73;85.25
55373;BME280;41249;47.838;16.490;2023-02-23T06:14:02;99155.28;;;-0.65;86.32
55373;BME280;41249;47.838;16.490;2023-02-23T06:16:29;99160.28;;;-0.67;85.95
55373;BME280;41249;47.838;16.490;2023-02-23T06:18:56;99159.81;;;-0.69;85.85
55373;BME280;41249;47.838;16.490;2023-02-23T06:21:22;99158.19;;;-0.70;85.75
55373;BME280;41249;47.838;16.490;2023-02-23T06:23:50;99163.47;;;-0.65;86.47
55373;BME280;41249;47.838;16.490;2023-02-23T06:26:17;99165.66;;;-0.59;86.56
55373;BME280;41249;47.838;16.490;2023-02-23T06:28:44;99155.84;;;-0.51;86.30
55373;BME280;41249;47.838;16.490;2023-02-23T06:31:10;99151.81;;;-0.45;86.36
55373;BME280;41249;47.838;16.490;2023-02-23T06:33:37;99163.66;;;-0.41;86.42
55373;BME280;41249;47.838;16.490;2023-02-23T06:36:04;99163.81;;;-0.37;85.56
55373;BME280;41249;47.838;16.490;2023-02-23T06:38:31;99169.63;;;-0.39;85.70
55373;BME280;41249;47.838;16.490;2023-02-23T06:40:57;99164.47;;;-0.40;85.25
55373;BME280;41249;47.838;16.490;2023-02-23T06:43:24;99168.00;;;-0.40;85.53
55373;BME280;41249;47.838;16.490;2023-02-23T06:45:50;99174.38;;;-0.36;84.71
55373;BME280;41249;47.838;16.490;2023-02-23T06:48:17;99172.16;;;-0.34;84.56
55373;BME280;41249;47.838;16.490;2023-02-23T06:50:43;99172.63;;;-0.32;85.11
55373;BME280;41249;47.838;16.490;2023-02-23T06:53:10;99172.28;;;-0.30;85.00
55373;BME280;41249;47.838;16.490;2023-02-23T06:55:36;99176.44;;;-0.24;84.31
55373;BME280;41249;47.838;16.490;2023-02-23T06:58:03;99176.84;;;-0.14;84.60
55373;BME280;41249;47.838;16.490;2023-02-23T07:00:32;99184.72;;;-0.12;84.07
55373;BME280;41249;47.838;16.490;2023-02-23T07:02:59;99185.72;;;0.04;84.88
55373;BME280;41249;47.838;16.490;2023-02-23T07:05:25;99189.69;;;0.15;84.21
55373;BME280;41249;47.838;16.490;2023-02-23T07:07:52;99184.41;;;0.10;84.19
55373;BME280;41249;47.838;16.490;2023-02-23T07:10:19;99186.22;;;0.06;84.51
55373;BME280;41249;47.838;16.490;2023-02-23T07:12:46;99188.78;;;0.02;83.92
55373;BME280;41249;47.838;16.490;2023-02-23T07:15:12;99184.94;;;0.03;84.47
55373;BME280;41249;47.838;16.490;2023-02-23T07:17:43;99193.91;;;0.04;84.99
55373;BME280;41249;47.838;16.490;2023-02-23T07:20:11;99195.13;;;0.15;85.59
55373;BME280;41249;47.838;16.490;2023-02-23T07:22:38;99193.94;;;0.25;85.67
55373;BME280;41249;47.838;16.490;2023-02-23T07:25:05;99187.63;;;0.33;85.23
55373;BME280;41249;47.838;16.490;2023-02-23T07:27:32;99188.22;;;0.38;85.86
55373;BME280;41249;47.838;16.490;2023-02-23T07:29:59;99189.47;;;0.61;85.82
55373;BME280;41249;47.838;16.490;2023-02-23T07:32:28;99192.47;;;0.89;86.18
55373;BME280;41249;47.838;16.490;2023-02-23T07:34:55;99191.03;;;1.04;85.73
55373;BME280;41249;47.838;16.490;2023-02-23T07:37:22;99192.78;;;1.08;85.13
55373;BME280;41249;47.838;16.490;2023-02-23T07:39:48;99189.38;;;1.23;84.55
55373;BME280;41249;47.838;16.490;2023-02-23T07:42:15;99193.03;;;1.27;84.36
55373;BME280;41249;47.838;16.490;2023-02-23T07:44:41;99189.66;;;1.42;84.08
55373;BME280;41249;47.838;16.490;2023-02-23T07:47:08;99186.94;;;1.55;83.46
55373;BME280;41249;47.838;16.490;2023-02-23T07:49:34;99191.97;;;1.65;82.80
55373;BME280;41249;47.838;16.490;2023-02-23T07:52:01;99197.88;;;1.79;82.73
55373;BME280;41249;47.838;16.490;2023-02-23T07:54:28;99193.19;;;2.03;81.90
55373;BME280;41249;47.838;16.490;2023-02-23T07:56:54;99194.31;;;2.27;82.33
55373;BME280;41249;47.838;16.490;2023-02-23T07:59:21;99199.66;;;2.47;81.15
55373;BME280;41249;47.838;16.490;2023-02-23T08:01:48;99201.00;;;2.41;80.67
55373;BME280;41249;47.838;16.490;2023-02-23T08:04:14;99201.22;;;2.48;80.42
55373;BME280;41249;47.838;16.490;2023-02-23T08:06:41;99198.63;;;2.40;79.94
55373;BME280;41249;47.838;16.490;2023-02-23T08:09:07;99204.78;;;2.37;79.62
55373;BME280;41249;47.838;16.490;2023-02-23T08:11:36;99202.25;;;2.44;79.53
55373;BME280;41249;47.838;16.490;2023-02-23T08:14:03;99203.00;;;2.68;79.73
55373;BME280;41249;47.838;16.490;2023-02-23T08:16:31;99201.38;;;2.79;79.20
55373;BME280;41249;47.838;16.490;2023-02-23T08:18:59;99203.31;;;2.79;79.50
55373;BME280;41249;47.838;16.490;2023-02-23T08:21:27;99207.50;;;2.89;78.86
55373;BME280;41249;47.838;16.490;2023-02-23T08:23:56;99209.47;;;3.04;79.24
55373;BME280;41249;47.838;16.490;2023-02-23T08:26:22;99208.25;;;3.29;78.18
55373;BME280;41249;47.838;16.490;2023-02-23T08:28:51;99214.19;;;3.47;78.37
55373;BME280;41249;47.838;16.490;2023-02-23T08:31:18;99219.19;;;3.72;77.18
55373;BME280;41249;47.838;16.490;2023-02-23T08:33:48;99210.94;;;3.72;77.51
55373;BME280;41249;47.838;16.490;2023-02-23T08:36:15;99221.91;;;3.57;77.94
55373;BME280;41249;47.838;16.490;2023-02-23T08:38:42;99218.09;;;3.61;78.21
55373;BME280;41249;47.838;16.490;2023-02-23T08:41:08;99216.72;;;3.67;76.88
55373;BME280;41249;47.838;16.490;2023-02-23T08:43:35;99218.03;;;3.89;77.49
55373;BME280;41249;47.838;16.490;2023-02-23T08:46:02;99219.59;;;4.05;77.22
55373;BME280;41249;47.838;16.490;2023-02-23T08:48:29;99206.50;;;3.99;76.44
55373;BME280;41249;47.838;16.490;2023-02-23T08:50:57;99215.44;;;3.96;76.96
55373;BME280;41249;47.838;16.490;2023-02-23T08:53:25;99213.34;;;3.89;77.16
55373;BME280;41249;47.838;16.490;2023-02-23T08:55:56;99220.34;;;3.87;76.52
55373;BME280;41249;47.838;16.490;2023-02-23T08:58:23;99213.34;;;3.89;76.11
55373;BME280;41249;47.838;16.490;2023-02-23T09:00:50;99222.63;;;4.00;75.73
55373;BME280;41249;47.838;16.490;2023-02-23T09:03:17;99214.69;;;4.30;75.62
55373;BME280;41249;47.838;16.490;2023-02-23T09:05:43;99228.53;;;4.53;75.33
55373;BME280;41249;47.838;16.490;2023-02-23T09:08:12;99224.88;;;4.64;75.16
55373;BME280;41249;47.838;16.490;2023-02-23T09:10:39;99223.94;;;4.76;74.96
55373;BME280;41249;47.838;16.490;2023-02-23T09:13:06;99225.88;;;4.56;74.32
55373;BME280;41249;47.838;16.490;2023-02-23T09:15:32;99224.13;;;4.14;74.78
55373;BME280;41249;47.838;16.490;2023-02-23T09:18:02;99218.34;;;4.03;75.80
55373;BME280;41249;47.838;16.490;2023-02-23T09:20:28;99221.84;;;3.84;76.42
55373;BME280;41249;47.838;16.490;2023-02-23T09:22:55;99221.13;;;3.87;75.97
55373;BME280;41249;47.838;16.490;2023-02-23T09:25:22;99219.16;;;4.03;76.05
55373;BME280;41249;47.838;16.490;2023-02-23T09:27:52;99226.75;;;4.26;74.84
55373;BME280;41249;47.838;16.490;2023-02-23T09:30:20;99227.66;;;4.30;75.02
55373;BME280;41249;47.838;16.490;2023-02-23T09:32:48;99222.97;;;4.49;74.50
55373;BME280;41249;47.838;16.490;2023-02-23T09:35:17;99229.72;;;4.52;73.71
55373;BME280;41249;47.838;16.490;2023-02-23T09:37:46;99233.19;;;4.68;73.62
55373;BME280;41249;47.838;16.490;2023-02-23T09:40:22;99228.88;;;4.86;73.02
55373;BME280;41249;47.838;16.490;2023-02-23T09:45:41;99231.06;;;4.77;73.21
55373;BME280;41249;47.838;16.490;2023-02-23T09:50:53;99228.78;;;4.83;71.38
55373;BME280;41249;47.838;16.490;2023-02-23T09:55:56;99224.09;;;5.02;71.04
55373;BME280;41249;47.838;16.490;2023-02-23T09:58:29;99223.03;;;5.07;71.22
55373;BME280;41249;47.838;16.490;2023-02-23T10:04:30;99225.13;;;4.94;71.55
55373;BME280;41249;47.838;16.490;2023-02-23T10:12:10;99219.91;;;4.89;70.89
55373;BME280;41249;47.838;16.490;2023-02-23T10:17:38;99216.72;;;5.06;69.65
55373;BME280;41249;47.838;16.490;2023-02-23T10:22:50;99215.75;;;5.37;69.21
55373;BME280;41249;47.838;16.490;2023-02-23T10:25:25;99220.00;;;5.54;68.96
55373;BME280;41249;47.838;16.490;2023-02-23T10:27:52;99217.78;;;5.63;69.10
55373;BME280;41249;47.838;16.490;2023-02-23T10:30:30;99212.03;;;5.49;68.69
55373;BME280;41249;47.838;16.490;2023-02-23T10:33:09;99211.97;;;5.68;68.70
55373;BME280;41249;47.838;16.490;2023-02-23T10:35:39;99207.88;;;5.81;68.01
55373;BME280;41249;47.838;16.490;2023-02-23T10:38:13;99203.66;;;5.87;68.22
55373;BME280;41249;47.838;16.490;2023-02-23T10:40:40;99211.34;;;6.00;67.26
55373;BME280;41249;47.838;16.490;2023-02-23T10:43:10;99199.78;;;6.14;67.39
55373;BME280;41249;47.838;16.490;2023-02-23T10:45:45;99201.34;;;6.41;66.64
55373;BME280;41249;47.838;16.490;2023-02-23T10:48:28;99206.50;;;6.69;66.33
55373;BME280;41249;47.838;16.490;2023-02-23T10:50:57;99204.16;;;6.71;65.61
55373;BME280;41249;47.838;16.490;2023-02-23T10:53:33;99190.69;;;6.40;65.53
55373;BME280;41249;47.838;16.490;2023-02-23T10:56:12;99192.44;;;6.25;66.49
55373;BME280;41249;47.838;16.490;2023-02-23T10:58:42;99189.69;;;6.25;66.19
55373;BME280;41249;47.838;16.490;2023-02-23T11:01:14;99187.22;;;6.17;66.74
55373;BME280;41249;47.838;16.490;2023-02-23T11:03:47;99173.13;;;6.22;66.39
55373;BME280;41249;47.838;16.490;2023-02-23T11:06:34;99179.88;;;6.28;65.95
55373;BME280;41249;47.838;16.490;2023-02-23T11:09:27;99167.78;;;6.36;64.94
55373;BME280;41249;47.838;16.490;2023-02-23T11:12:28;99163.25;;;6.50;65.40
55373;BME280;41249;47.838;16.490;2023-02-23T11:15:24;99159.78;;;6.57;65.02
55373;BME280;41249;47.838;16.490;2023-02-23T11:18:05;99158.53;;;6.51;64.88
55373;BME280;41249;47.838;16.490;2023-02-23T11:20:38;99155.53;;;6.63;64.48
55373;BME280;41249;47.838;16.490;2023-02-23T11:23:26;99151.09;;;6.81;63.48
55373;BME280;41249;47.838;16.490;2023-02-23T11:25:59;99148.88;;;6.94;63.00
55373;BME280;41249;47.838;16.490;2023-02-23T11:28:35;99150.59;;;7.09;62.24
55373;BME280;41249;47.838;16.490;2023-02-23T11:31:54;99143.06;;;7.43;62.11
55373;BME280;41249;47.838;16.490;2023-02-23T11:33:55;99148.28;;;7.51;62.23
55373;BME280;41249;47.838;16.490;2023-02-23T11:41:41;99140.59;;;6.94;62.69
55373;BME280;41249;47.838;16.490;2023-02-23T11:44:20;99128.22;;;6.81;63.19
55373;BME280;41249;47.838;16.490;2023-02-23T11:46:49;99119.06;;;6.73;63.55
55373;BME280;41249;47.838;16.490;2023-02-23T11:49:24;99122.16;;;6.68;63.40
55373;BME280;41249;47.838;16.490;2023-02-23T11:51:52;99117.19;;;6.51;64.03
55373;BME280;41249;47.838;16.490;2023-02-23T11:54:31;99120.63;;;6.44;64.15
55373;BME280;41249;47.838;16.490;2023-02-23T11:56:59;99113.69;;;6.57;64.26
55373;BME280;41249;47.838;16.490;2023-02-23T12:02:44;99108.28;;;6.98;63.23
55373;BME280;41249;47.838;16.490;2023-02-23T12:10:43;99088.31;;;8.06;60.96
55373;BME280;41249;47.838;16.490;2023-02-23T12:13:23;99081.88;;;7.95;60.07
55373;BME280;41249;47.838;16.490;2023-02-23T12:16:07;99091.66;;;7.78;59.78
55373;BME280;41249;47.838;16.490;2023-02-23T12:18:58;99083.41;;;7.85;60.88
55373;BME280;41249;47.838;16.490;2023-02-23T12:21:42;99074.75;;;7.90;59.84
55373;BME280;41249;47.838;16.490;2023-02-23T12:24:41;99075.22;;;8.03;60.39
55373;BME280;41249;47.838;16.490;2023-02-23T12:27:13;99073.34;;;8.18;60.37
55373;BME280;41249;47.838;16.490;2023-02-23T12:32:51;99064.94;;;8.97;59.58
55373;BME280;41249;47.838;16.490;2023-02-23T12:35:28;99068.19;;;9.38;58.37
55373;BME280;41249;47.838;16.490;2023-02-23T12:38:04;99066.56;;;9.86;57.52
55373;BME280;41249;47.838;16.490;2023-02-23T12:40:38;99068.06;;;10.22;56.28
55373;BME280;41249;47.838;16.490;2023-02-23T12:43:15;99063.25;;;10.48;56.18
55373;BME280;41249;47.838;16.490;2023-02-23T12:45:50;99060.81;;;10.60;55.63
55373;BME280;41249;47.838;16.490;2023-02-23T12:50:59;99063.78;;;10.97;55.48
55373;BME280;41249;47.838;16.490;2023-02-23T12:53:30;99056.66;;;10.96;55.69
55373;BME280;41249;47.838;16.490;2023-02-23T12:58:50;99057.25;;;11.25;55.05
55373;BME280;41249;47.838;16.490;2023-02-23T13:01:26;99054.63;;;11.55;54.42
55373;BME280;41249;47.838;16.490;2023-02-23T13:07:03;99054.09;;;11.74;54.13
55373;BME280;41249;47.838;16.490;2023-02-23T13:15:19;99057.34;;;11.11;53.96
55373;BME280;41249;47.838;16.490;2023-02-23T13:18:08;99065.59;;;11.25;54.59
55373;BME280;41249;47.838;16.490;2023-02-23T13:23:22;99058.38;;;11.35;54.29
55373;BME280;41249;47.838;16.490;2023-02-23T13:26:57;99053.25;;;11.30;54.08
55373;BME280;41249;47.838;16.490;2023-02-23T13:29:08;99044.84;;;11.40;53.34
55373;BME280;41249;47.838;16.490;2023-02-23T13:31:40;99049.25;;;11.31;53.32
55373;BME280;41249;47.838;16.490;2023-02-23T13:34:12;99048.19;;;11.14;53.56
55373;BME280;41249;47.838;16.490;2023-02-23T13:36:42;99053.44;;;11.01;54.26
55373;BME280;41249;47.838;16.490;2023-02-23T13:42:23;99046.56;;;10.51;54.79
55373;BME280;41249;47.838;16.490;2023-02-23T13:45:25;99048.28;;;10.20;55.30
55373;BME280;41249;47.838;16.490;2023-02-23T13:48:01;99050.72;;;9.87;55.99
55373;BME280;41249;47.838;16.490;2023-02-23T13:56:20;99051.56;;;9.45;56.79
55373;BME280;41249;47.838;16.490;2023-02-23T13:58:54;99045.22;;;9.48;56.38
55373;BME280;41249;47.838;16.490;2023-02-23T14:01:31;99052.38;;;9.38;56.71
55373;BME280;41249;47.838;16.490;2023-02-23T14:04:01;99046.00;;;9.41;56.37
55373;BME280;41249;47.838;16.490;2023-02-23T14:06:30;99050.78;;;9.37;56.35
55373;BME280;41249;47.838;16.490;2023-02-23T14:09:12;99044.44;;;9.44;56.43
55373;BME280;41249;47.838;16.490;2023-02-23T14:11:47;99043.63;;;9.54;56.21
55373;BME280;41249;47.838;16.490;2023-02-23T14:20:02;99030.16;;;9.28;55.71
55373;BME280;41249;47.838;16.490;2023-02-23T14:22:33;99041.22;;;9.24;55.98
55373;BME280;41249;47.838;16.490;2023-02-23T14:28:41;99040.03;;;9.21;56.29
55373;BME280;41249;47.838;16.490;2023-02-23T14:36:28;99044.38;;;9.08;56.70
55373;BME280;41249;47.838;16.490;2023-02-23T14:39:07;99043.59;;;9.04;56.23
55373;BME280;41249;47.838;16.490;2023-02-23T14:44:29;99045.19;;;8.98;56.66
55373;BME280;41249;47.838;16.490;2023-02-23T14:47:06;99041.59;;;8.87;57.13
55373;BME280;41249;47.838;16.490;2023-02-23T14:49:41;99044.72;;;8.72;57.16
55373;BME280;41249;47.838;16.490;2023-02-23T14:52:15;99044.31;;;8.63;57.39
55373;BME280;41249;47.838;16.490;2023-02-23T14:54:45;99049.81;;;8.55;58.20
55373;BME280;41249;47.838;16.490;2023-02-23T14:57:18;99046.22;;;8.44;58.27
55373;BME280;41249;47.838;16.490;2023-02-23T14:59:51;99043.78;;;8.32;58.46
55373;BME280;41249;47.838;16.490;2023-02-23T15:02:21;99047.28;;;8.19;58.29
55373;BME280;41249;47.838;16.490;2023-02-23T15:04:49;99041.34;;;8.13;59.03
55373;BME280;41249;47.838;16.490;2023-02-23T15:07:25;99043.22;;;8.02;59.15
55373;BME280;41249;47.838;16.490;2023-02-23T15:09:57;99031.72;;;7.97;59.63
55373;BME280;41249;47.838;16.490;2023-02-23T15:12:28;99039.25;;;7.96;59.66
55373;BME280;41249;47.838;16.490;2023-02-23T15:14:58;99038.44;;;7.88;59.63
55373;BME280;41249;47.838;16.490;2023-02-23T15:17:27;99036.78;;;7.84;59.93
55373;BME280;41249;47.838;16.490;2023-02-23T15:20:03;99033.94;;;7.70;60.36
55373;BME280;41249;47.838;16.490;2023-02-23T15:22:42;99032.31;;;7.62;59.61